createdAt,value
2023-01-11T00:02:20.177Z,99198.71
2023-01-11T00:05:36.628Z,99203.83
2023-01-11T00:12:09.188Z,99183.25
2023-01-11T00:15:26.002Z,99192.23
2023-01-11T00:18:42.960Z,99193.05
2023-01-11T00:22:00.313Z,99198.30
2023-01-11T00:25:17.439Z,99189.88
2023-01-11T00:28:33.656Z,99206.59
2023-01-11T00:31:49.889Z,99208.94
2023-01-11T00:35:06.084Z,99215.86
2023-01-11T00:41:52.034Z,99220.02
2023-01-11T00:45:23.363Z,99217.15
2023-01-11T00:48:39.462Z,99228.99
2023-01-11T00:51:55.732Z,99228.61
2023-01-11T00:55:13.036Z,99225.13
2023-01-11T00:58:31.385Z,99231.34
2023-01-11T01:01:48.210Z,99229.57
2023-01-11T01:05:04.898Z,99223.47
2023-01-11T01:08:20.920Z,99216.16
2023-01-11T01:11:36.821Z,99224.61
2023-01-11T01:14:58.867Z,99225.57
2023-01-11T01:18:15.309Z,99230.28
2023-01-11T01:21:31.910Z,99238.70
2023-01-11T01:24:48.265Z,99232.11
2023-01-11T01:28:04.565Z,99223.95
2023-01-11T01:31:21.345Z,99224.52
2023-01-11T01:34:38.620Z,99224.52
2023-01-11T01:41:48.913Z,99215.53
2023-01-11T01:45:24.833Z,99226.14
2023-01-11T01:48:41.108Z,99228.09
2023-01-11T01:52:00.727Z,99234.82
2023-01-11T01:58:36.246Z,99233.02
2023-01-11T02:01:54.357Z,99225.84
2023-01-11T02:05:12.074Z,99226.14
2023-01-11T02:11:44.640Z,99232.25
2023-01-11T02:15:02.149Z,99214.11
2023-01-11T02:18:22.454Z,99225.33
2023-01-11T02:21:43.813Z,99223.80
2023-01-11T02:25:21.886Z,99231.09
2023-01-11T02:28:42.594Z,99229.43
2023-01-11T02:32:03.986Z,99234.44
2023-01-11T02:35:26.699Z,99227.52
2023-01-11T02:42:18.024Z,99225.27
2023-01-11T02:45:46.989Z,99221.69
2023-01-11T02:49:08.315Z,99226.94
2023-01-11T02:52:30.484Z,99233.16
2023-01-11T02:55:52.647Z,99235.58
2023-01-11T02:59:10.022Z,99237.67
2023-01-11T03:02:26.151Z,99234.33
2023-01-11T03:05:48.125Z,99230.17
2023-01-11T03:12:52.002Z,99231.50
2023-01-11T03:16:34.173Z,99225.30
2023-01-11T03:19:55.548Z,99234.13
2023-01-11T03:27:54.449Z,99231.20
2023-01-11T03:31:17.553Z,99228.30
2023-01-11T03:34:39.424Z,99224.99
2023-01-11T03:38:00.304Z,99211.02
2023-01-11T03:44:36.669Z,99206.48
2023-01-11T03:47:52.842Z,99208.73
2023-01-11T03:51:12.522Z,99215.64
2023-01-11T03:57:50.236Z,99222.45
2023-01-11T04:01:07.446Z,99220.98
2023-01-11T04:04:23.838Z,99219.45
2023-01-11T04:07:40.896Z,99216.14
2023-01-11T04:10:57.176Z,99220.92
2023-01-11T04:14:13.281Z,99214.72
2023-01-11T04:17:29.654Z,99209.90
2023-01-11T04:20:47.895Z,99205.22
2023-01-11T04:24:03.991Z,99207.02
2023-01-11T04:27:20.162Z,99203.55
2023-01-11T04:30:38.058Z,99200.68
2023-01-11T04:33:56.195Z,99199.15
2023-01-11T04:37:12.889Z,99189.88
2023-01-11T04:40:29.515Z,99191.52
2023-01-11T04:43:45.592Z,99197.20
2023-01-11T04:47:01.930Z,99205.36
2023-01-11T04:50:20.161Z,99194.66
2023-01-11T04:58:49.855Z,99195.66
2023-01-11T05:02:06.044Z,99199.34
2023-01-11T05:05:22.091Z,99205.97
2023-01-11T05:08:39.743Z,99207.06
2023-01-11T05:11:56.168Z,99208.83
2023-01-11T05:15:16.332Z,99201.80
2023-01-11T05:18:32.416Z,99198.74
2023-01-11T05:21:50.294Z,99198.60
2023-01-11T05:25:06.589Z,99199.42
2023-01-11T05:28:22.610Z,99197.27
2023-01-11T05:31:40.754Z,99202.81
2023-01-11T05:34:57.600Z,99200.77
2023-01-11T05:38:13.666Z,99200.63
2023-01-11T05:41:32.801Z,99202.38
2023-01-11T05:45:02.764Z,99203.47
2023-01-11T05:48:19.062Z,99195.84
2023-01-11T05:51:36.218Z,99197.78
2023-01-11T05:54:52.686Z,99206.18
2023-01-11T05:58:10.298Z,99192.58
2023-01-11T06:01:29.432Z,99187.33
2023-01-11T06:04:45.513Z,99183.75
2023-01-11T06:08:03.641Z,99181.27
2023-01-11T06:11:20.117Z,99178.06
2023-01-11T06:14:38.133Z,99176.29
2023-01-11T06:17:56.367Z,99179.16
2023-01-11T06:21:11.495Z,99177.92
2023-01-11T06:24:27.580Z,99179.02
2023-01-11T06:27:45.543Z,99183.75
2023-01-11T06:31:06.438Z,99177.48
2023-01-11T06:34:23.120Z,99172.10
2023-01-11T06:37:40.190Z,99173.91
2023-01-11T06:41:01.623Z,99169.61
2023-01-11T06:44:18.144Z,99176.53
2023-01-11T06:47:34.344Z,99181.64
2023-01-11T06:50:52.349Z,99175.23
2023-01-11T06:54:08.731Z,99184.02
2023-01-11T06:57:24.893Z,99177.41
2023-01-11T07:00:41.527Z,99184.70
2023-01-11T07:03:57.904Z,99182.42
2023-01-11T07:07:14.142Z,99182.42
2023-01-11T07:10:30.664Z,99180.03
2023-01-11T07:13:46.941Z,99181.13
2023-01-11T07:17:03.213Z,99173.15
2023-01-11T07:20:21.787Z,99179.93
2023-01-11T07:23:38.139Z,99178.56
2023-01-11T07:26:56.488Z,99169.16
2023-01-11T07:30:14.320Z,99172.79
2023-01-11T07:33:31.987Z,99161.91
2023-01-11T07:36:48.513Z,99166.35
2023-01-11T07:40:05.224Z,99170.26
2023-01-11T07:43:24.063Z,99163.63
2023-01-11T07:46:41.028Z,99168.78
2023-01-11T07:49:59.784Z,99165.66
2023-01-11T07:53:16.403Z,99160.29
2023-01-11T07:59:48.776Z,99153.53
2023-01-11T08:03:06.028Z,99159.30
2023-01-11T08:06:22.484Z,99162.38
2023-01-11T08:13:10.784Z,99154.95
2023-01-11T08:16:28.155Z,99153.14
2023-01-11T08:19:44.781Z,99141.95
2023-01-11T08:23:03.015Z,99145.65
2023-01-11T08:26:21.179Z,99156.41
2023-01-11T08:29:38.895Z,99146.55
2023-01-11T08:32:55.781Z,99151.48
2023-01-11T08:36:18.526Z,99157.69
2023-01-11T08:39:41.484Z,99156.48
2023-01-11T08:43:02.291Z,99160.32
2023-01-11T08:46:20.266Z,99157.80
2023-01-11T08:49:42.182Z,99170.40
2023-01-11T08:52:58.854Z,99163.73
2023-01-11T08:56:16.469Z,99164.81
2023-01-11T08:59:34.003Z,99161.20
2023-01-11T09:02:50.600Z,99165.63
2023-01-11T09:06:07.470Z,99164.29
2023-01-11T09:12:40.717Z,99160.56
2023-01-11T09:15:57.433Z,99152.66
2023-01-11T09:19:13.910Z,99155.85
2023-01-11T09:22:32.859Z,99156.03
2023-01-11T09:25:49.077Z,99149.09
2023-01-11T09:29:05.739Z,99142.13
2023-01-11T09:32:22.270Z,99142.41
2023-01-11T09:35:40.303Z,99130.56
2023-01-11T09:38:58.236Z,99127.73
2023-01-11T09:42:40.419Z,99129.83
2023-01-11T09:45:58.809Z,99122.51
2023-01-11T09:49:21.310Z,99119.13
2023-01-11T09:52:42.959Z,99116.34
2023-01-11T09:56:03.762Z,99111.67
2023-01-11T09:59:28.332Z,99110.53
2023-01-11T10:02:58.690Z,99109.38
2023-01-11T10:06:23.454Z,99101.94
2023-01-11T10:18:39.367Z,99084.52
2023-01-11T10:20:03.555Z,99081.88
2023-01-11T10:23:26.855Z,99069.67
2023-01-11T10:26:47.281Z,99054.45
2023-01-11T10:30:14.459Z,99050.16
2023-01-11T10:33:41.611Z,99059.88
2023-01-11T10:37:08.700Z,99061.25
2023-01-11T10:40:42.088Z,99065.47
2023-01-11T10:44:05.942Z,99061.83
2023-01-11T10:47:28.743Z,99058.53
2023-01-11T10:50:53.775Z,99062.80
2023-01-11T10:55:03.300Z,99051.06
2023-01-11T10:58:29.038Z,99049.19
2023-01-11T11:01:59.099Z,99049.80
2023-01-11T11:05:27.739Z,99050.16
2023-01-11T11:08:49.189Z,99056.81
2023-01-11T11:15:26.134Z,99050.11
2023-01-11T11:18:53.995Z,99044.22
2023-01-11T11:22:10.526Z,99036.97
2023-01-11T11:25:32.384Z,99031.77
2023-01-11T11:29:04.623Z,99033.80
2023-01-11T11:32:36.378Z,99021.14
2023-01-11T11:35:55.018Z,99020.86
2023-01-11T11:44:38.487Z,98996.41
2023-01-11T11:48:15.476Z,98991.23
2023-01-11T11:51:34.343Z,98995.13
2023-01-11T11:54:58.906Z,98997.77
2023-01-11T11:58:21.174Z,98997.39
2023-01-11T12:01:41.550Z,98991.23
2023-01-11T12:04:59.584Z,98980.62
2023-01-11T12:08:23.055Z,98980.16
2023-01-11T12:11:45.837Z,98971.80
2023-01-11T12:15:31.706Z,98981.95
2023-01-11T12:18:51.794Z,98981.30
2023-01-11T12:22:28.701Z,98974.36
2023-01-11T12:29:52.282Z,98963.63
2023-01-11T12:33:39.965Z,98966.99
2023-01-11T12:37:00.987Z,98950.28
2023-01-11T12:43:49.066Z,98958.19
2023-01-11T12:47:21.136Z,98942.53
2023-01-11T12:50:42.274Z,98935.08
2023-01-11T12:54:29.008Z,98935.23
2023-01-11T12:57:58.293Z,98929.72
2023-01-11T13:01:53.423Z,98929.97
2023-01-11T13:05:24.068Z,98913.34
2023-01-11T13:08:50.473Z,98904.58
2023-01-11T13:12:13.450Z,98915.69
2023-01-11T13:15:42.929Z,98916.58
2023-01-11T13:19:04.467Z,98916.10
2023-01-11T13:22:26.862Z,98917.23
2023-01-11T13:25:48.492Z,98909.81
2023-01-11T13:29:10.243Z,98897.28
2023-01-11T13:32:29.778Z,98906.85
2023-01-11T13:35:47.386Z,98914.76
2023-01-11T13:39:08.402Z,98920.19
2023-01-11T13:45:45.184Z,98908.44
2023-01-11T13:49:05.900Z,98910.26
2023-01-11T13:52:25.268Z,98906.89
2023-01-11T13:59:06.589Z,98898.30
2023-01-11T14:02:47.313Z,98897.69
2023-01-11T14:06:16.928Z,98901.98
2023-01-11T14:10:30.480Z,98891.21
2023-01-11T14:14:26.906Z,98882.20
2023-01-11T14:18:22.216Z,98886.50
2023-01-11T14:21:44.981Z,98881.59
2023-01-11T14:29:35.048Z,98875.14
2023-01-11T14:33:43.916Z,98879.88
2023-01-11T14:37:39.156Z,98879.69
2023-01-11T14:41:14.095Z,98870.83
2023-01-11T14:45:00.763Z,98872.02
2023-01-11T14:48:34.928Z,98867.66
2023-01-11T14:52:00.654Z,98867.94
2023-01-11T14:56:03.731Z,98859.52
2023-01-11T14:59:46.200Z,98863.33
2023-01-11T15:03:19.157Z,98866.55
2023-01-11T15:06:44.817Z,98866.70
2023-01-11T15:10:04.045Z,98859.33
2023-01-11T15:16:54.273Z,98847.20
2023-01-11T15:20:18.614Z,98834.27
2023-01-11T15:23:40.141Z,98839.97
2023-01-11T15:27:00.319Z,98832.09
2023-01-11T15:30:45.225Z,98826.06
2023-01-11T15:34:08.050Z,98821.80
2023-01-11T15:37:50.818Z,98826.80
2023-01-11T15:44:43.864Z,98827.34
2023-01-11T15:48:29.378Z,98822.91
2023-01-11T15:52:19.609Z,98818.34
2023-01-11T16:01:26.900Z,98802.30
2023-01-11T16:04:48.712Z,98808.00
2023-01-11T16:08:11.532Z,98811.19
2023-01-11T16:11:34.907Z,98802.61
2023-01-11T16:15:42.108Z,98811.75
2023-01-11T16:19:03.223Z,98801.66
2023-01-11T16:22:26.682Z,98796.00
2023-01-11T16:30:31.238Z,98799.45
2023-01-11T16:33:50.803Z,98798.22
2023-01-11T16:37:05.235Z,98798.22
2023-01-11T16:40:27.969Z,98792.42
2023-01-11T16:43:50.350Z,98781.08
2023-01-11T16:47:27.625Z,98771.98
2023-01-11T16:50:44.791Z,98773.23
2023-01-11T16:54:06.120Z,98768.66
2023-01-11T16:57:24.109Z,98769.88
2023-01-11T17:00:44.226Z,98770.42
2023-01-11T17:04:04.937Z,98770.86
2023-01-11T17:07:31.418Z,98777.29
2023-01-11T17:16:20.822Z,98780.56
2023-01-11T17:19:41.832Z,98777.42
2023-01-11T17:23:01.417Z,98776.20
2023-01-11T17:29:38.574Z,98768.33
2023-01-11T17:33:00.264Z,98767.89
2023-01-11T17:36:18.008Z,98766.30
2023-01-11T17:39:37.727Z,98767.39
2023-01-11T17:43:08.386Z,98765.86
2023-01-11T17:46:28.142Z,98772.56
2023-01-11T17:49:47.636Z,98769.50
2023-01-11T17:53:19.115Z,98767.19
2023-01-11T17:56:46.953Z,98764.27
2023-01-11T18:00:29.307Z,98761.34
2023-01-11T18:03:52.567Z,98762.03
2023-01-11T18:07:21.424Z,98747.17
2023-01-11T18:10:40.754Z,98756.52
2023-01-11T18:17:20.394Z,98741.83
2023-01-11T18:20:47.657Z,98741.97
2023-01-11T18:24:43.070Z,98746.34
2023-01-11T18:28:14.881Z,98747.73
2023-01-11T18:31:31.768Z,98735.12
2023-01-11T18:34:48.832Z,98737.23
2023-01-11T18:38:05.463Z,98739.58
2023-01-11T18:45:54.195Z,98756.71
2023-01-11T18:49:28.401Z,98769.59
2023-01-11T18:52:47.033Z,98769.03
2023-01-11T18:56:11.359Z,98768.28
2023-01-11T18:59:27.721Z,98770.89
2023-01-11T19:02:48.300Z,98768.25
2023-01-11T19:06:04.825Z,98766.58
2023-01-11T19:09:21.141Z,98774.28
2023-01-11T19:12:39.211Z,98772.48
2023-01-11T19:15:56.168Z,98771.94
2023-01-11T19:19:12.656Z,98766.74
2023-01-11T19:22:28.824Z,98766.52
2023-01-11T19:25:45.355Z,98769.63
2023-01-11T19:29:01.621Z,98769.05
2023-01-11T19:32:33.732Z,98771.53
2023-01-11T19:35:50.892Z,98770.44
2023-01-11T19:39:07.264Z,98765.96
2023-01-11T19:42:24.541Z,98771.44
2023-01-11T19:45:41.013Z,98774.53
2023-01-11T19:48:58.126Z,98780.82
2023-01-11T19:52:19.452Z,98777.02
2023-01-11T19:55:35.792Z,98784.84
2023-01-11T19:58:52.093Z,98778.69
2023-01-11T20:02:08.541Z,98781.52
2023-01-11T20:05:27.199Z,98780.09
2023-01-11T20:08:44.703Z,98782.83
2023-01-11T20:12:00.948Z,98793.05
2023-01-11T20:15:19.214Z,98791.86
2023-01-11T20:18:35.473Z,98786.27
2023-01-11T20:21:52.148Z,98793.27
2023-01-11T20:25:08.517Z,98791.61
2023-01-11T20:28:26.044Z,98785.45
2023-01-11T20:31:43.656Z,98793.63
2023-01-11T20:35:00.013Z,98787.34
2023-01-11T20:38:16.337Z,98786.73
2023-01-11T20:41:54.874Z,98785.33
2023-01-11T20:45:12.362Z,98775.47
2023-01-11T20:48:28.542Z,98770.00
2023-01-11T20:51:46.275Z,98779.75
2023-01-11T20:55:02.626Z,98777.61
2023-01-11T20:58:18.970Z,98773.56
2023-01-11T21:01:35.973Z,98767.30
2023-01-11T21:04:52.415Z,98756.36
2023-01-11T21:08:08.613Z,98766.11
2023-01-11T21:11:25.786Z,98754.13
2023-01-11T21:14:42.083Z,98764.91
2023-01-11T21:17:58.267Z,98759.69
2023-01-11T21:21:18.661Z,98761.58
2023-01-11T21:24:35.185Z,98769.41
2023-01-11T21:27:51.327Z,98768.12
2023-01-11T21:31:12.900Z,98763.59
2023-01-11T21:34:29.624Z,98756.73
2023-01-11T21:37:45.801Z,98767.87
2023-01-11T21:41:02.360Z,98758.15
2023-01-11T21:44:20.119Z,98768.72
2023-01-11T21:47:36.604Z,98769.53
2023-01-11T21:50:56.616Z,98779.16
2023-01-11T21:54:19.073Z,98790.33
2023-01-11T21:57:35.178Z,98800.52
2023-01-11T22:00:52.604Z,98810.02
2023-01-11T22:04:11.744Z,98807.41
2023-01-11T22:07:27.991Z,98808.00
2023-01-11T22:10:44.621Z,98807.05
2023-01-11T22:14:00.683Z,98816.41
2023-01-11T22:17:16.830Z,98818.77
2023-01-11T22:20:34.987Z,98821.14
2023-01-11T22:23:52.553Z,98823.63
2023-01-11T22:27:09.873Z,98825.05
2023-01-11T22:30:26.869Z,98815.47
2023-01-11T22:33:44.040Z,98819.01
2023-01-11T22:37:00.277Z,98820.42
2023-01-11T22:40:20.119Z,98810.91
2023-01-11T22:43:36.216Z,98812.45
2023-01-11T22:46:53.124Z,98818.01
2023-01-11T22:50:09.717Z,98802.09
2023-01-11T22:53:26.192Z,98810.75
2023-01-11T22:56:42.611Z,98809.19
2023-01-11T22:59:58.992Z,98813.66
2023-01-11T23:03:15.551Z,98810.55
2023-01-11T23:06:34.829Z,98830.73
2023-01-11T23:09:50.982Z,98837.24
2023-01-11T23:13:20.940Z,98830.19
2023-01-11T23:16:38.191Z,98822.28
2023-01-11T23:19:54.814Z,98820.45
2023-01-11T23:23:10.914Z,98823.38
2023-01-11T23:26:27.289Z,98827.28
2023-01-11T23:29:43.547Z,98833.72
2023-01-11T23:32:59.594Z,98830.98
2023-01-11T23:36:17.186Z,98833.33
2023-01-11T23:39:33.535Z,98839.72
2023-01-11T23:42:49.511Z,98841.97
2023-01-11T23:46:09.242Z,98850.00
2023-01-11T23:49:25.548Z,98860.33
2023-01-11T23:52:42.632Z,98858.94
2023-01-11T23:56:05.747Z,98865.06
2023-01-11T23:59:22.321Z,98867.17
